Time;durP1;ratioP1;P1;durP2;ratioP2;P2;SDS_P1;SDS_P2;PMS_P1;PMS_P2;Temp;Humidity;BMP_temperature;BMP_pressure;BME280_temperature;BME280_humidity;BME280_pressure;Samples;Min_cycle;Max_cycle;Signal;HPM_P1;HPM_P2
2023/01/13 00:01:12;;;;;;;15.35;1.85;;;8.30;99.90;;;;;;5070950;28;20040;-83
2023/01/13 00:03:38;;;;;;;15.27;2.92;;;8.20;99.90;;;;;;5071861;28;20500;-84
2023/01/13 00:06:05;;;;;;;;;;;8.20;99.90;;;;;;5071486;28;20044;-84
2023/01/13 00:08:32;;;;;;;10.90;2.10;;;8.20;99.90;;;;;;5071332;28;19925;-84
2023/01/13 00:10:58;;;;;;;21.83;2.95;;;8.10;99.90;;;;;;5071157;28;20051;-87
2023/01/13 00:13:27;;;;;;;14.93;2.13;;;8.00;99.90;;;;;;5071534;28;20048;-84
2023/01/13 00:16:04;;;;;;;20.63;2.92;;;7.90;99.90;;;;;;5071522;28;20106;-84
2023/01/13 00:18:30;;;;;;;19.77;3.22;;;7.80;99.90;;;;;;5054429;28;20052;-83
2023/01/13 00:21:10;;;;;;;13.15;2.47;;;7.80;99.90;;;;;;5071024;28;20048;-89
2023/01/13 00:23:38;;;;;;;18.63;2.90;;;7.80;99.90;;;;;;5071017;28;20066;-84
2023/01/13 00:26:08;;;;;;;15.85;2.67;;;7.70;99.90;;;;;;5070593;28;20048;-86
2023/01/13 00:28:34;;;;;;;17.83;2.47;;;7.60;99.90;;;;;;5071273;28;20091;-84
2023/01/13 00:31:05;;;;;;;10.02;3.10;;;7.60;99.90;;;;;;5070775;28;20474;-84
2023/01/13 00:33:30;;;;;;;12.00;2.25;;;7.50;99.90;;;;;;5070745;28;20393;-84
2023/01/13 00:36:00;;;;;;;18.15;2.60;;;7.50;99.90;;;;;;5054384;28;20047;-84
2023/01/13 00:38:26;;;;;;;15.18;2.95;;;7.50;99.90;;;;;;5070740;28;20493;-85
2023/01/13 00:41:12;;;;;;;21.02;3.28;;;7.40;99.90;;;;;;5070482;28;20412;-84
2023/01/13 00:43:38;;;;;;;19.35;2.33;;;7.40;99.90;;;;;;5070716;28;20568;-84
2023/01/13 00:46:06;;;;;;;13.35;2.03;;;7.40;99.90;;;;;;5070035;28;20093;-84
2023/01/13 00:48:33;;;;;;;11.52;2.17;;;7.50;99.90;;;;;;5070819;28;20052;-84
2023/01/13 00:51:01;;;;;;;15.52;2.05;;;7.40;99.90;;;;;;5070726;28;20087;-88
2023/01/13 00:53:28;;;;;;;8.98;2.58;;;7.40;99.90;;;;;;5070680;28;20059;-84
2023/01/13 00:56:21;;;;;;;21.05;3.03;;;7.40;99.90;;;;;;5053424;28;20135;-83
2023/01/13 00:58:47;;;;;;;16.15;2.38;;;7.40;99.90;;;;;;5066871;28;20056;-84
2023/01/13 01:01:19;;;;;;;19.27;4.05;;;7.40;99.90;;;;;;5052516;28;20135;-84
2023/01/13 01:03:52;;;;;;;17.27;3.10;;;7.40;99.90;;;;;;5070367;28;20106;-83
2023/01/13 01:06:24;;;;;;;21.25;3.10;;;7.40;99.90;;;;;;5069727;28;20045;-83
2023/01/13 01:08:50;;;;;;;14.40;2.53;;;7.40;99.90;;;;;;5069643;28;20178;-85
2023/01/13 01:11:19;;;;;;;24.45;2.50;;;7.40;99.90;;;;;;5069675;28;20109;-84
2023/01/13 01:13:46;;;;;;;28.38;2.65;;;7.40;99.90;;;;;;5070298;28;20055;-84
2023/01/13 01:16:15;;;;;;;15.05;2.88;;;7.40;99.90;;;;;;5069767;28;20079;-85
2023/01/13 01:18:43;;;;;;;18.77;3.05;;;7.40;99.90;;;;;;5070497;28;20513;-84
2023/01/13 01:21:09;;;;;;;14.75;2.38;;;7.40;99.90;;;;;;5070040;28;20048;-84
2023/01/13 01:23:36;;;;;;;13.30;2.45;;;7.40;99.90;;;;;;5070444;28;20048;-84
2023/01/13 01:26:04;;;;;;;13.35;2.25;;;7.50;99.90;;;;;;5053772;28;20698;-88
2023/01/13 01:28:31;;;;;;;12.68;2.92;;;7.40;99.90;;;;;;5054030;28;20063;-84
2023/01/13 01:31:00;;;;;;;18.10;2.40;;;7.50;99.90;;;;;;5070704;28;20057;-85
2023/01/13 01:33:27;;;;;;;19.38;2.75;;;7.50;99.90;;;;;;5069845;28;20084;-84
2023/01/13 01:35:55;;;;;;;12.00;2.30;;;7.60;99.90;;;;;;5053782;28;20126;-86
2023/01/13 01:38:22;;;;;;;22.42;2.83;;;7.60;99.90;;;;;;5053081;28;20061;-83
2023/01/13 01:40:48;;;;;;;13.75;3.05;;;7.60;99.90;;;;;;5070393;28;20059;-86
2023/01/13 01:46:02;;;;;;;23.58;2.70;;;7.70;99.90;;;;;;5070403;28;20149;-88
2023/01/13 01:48:31;;;;;;;27.17;3.50;;;7.70;99.90;;;;;;5069763;28;20510;-84
2023/01/13 01:50:57;;;;;;;16.40;2.53;;;7.70;99.90;;;;;;5070075;28;20044;-84
2023/01/13 01:53:24;;;;;;;18.45;3.45;;;7.80;99.90;;;;;;5069615;28;20047;-84
2023/01/13 01:55:50;;;;;;;18.55;3.17;;;7.70;99.90;;;;;;5053529;28;20478;-84
2023/01/13 01:58:51;;;;;;;18.45;3.88;;;7.70;99.90;;;;;;5053111;28;20122;-85
2023/01/13 02:01:17;;;;;;;15.45;2.67;;;7.60;99.90;;;;;;5051915;28;20053;-84
2023/01/13 02:03:44;;;;;;;;;;;7.60;99.90;;;;;;5070659;28;20075;-85
2023/01/13 02:06:12;;;;;;;26.52;3.40;;;7.50;99.90;;;;;;5069416;28;20030;-85
2023/01/13 02:08:39;;;;;;;22.88;3.50;;;7.50;99.90;;;;;;5072099;28;20057;-85
2023/01/13 02:12:28;;;;;;;20.70;2.90;;;7.50;99.90;;;;;;5073506;28;20131;-88
2023/01/13 02:13:52;;;;;;;15.33;2.50;;;7.40;99.90;;;;;;5073685;28;20113;-84
2023/01/13 02:16:23;;;;;;;20.95;3.67;;;7.40;99.90;;;;;;5073356;28;20044;-84
2023/01/13 02:18:58;;;;;;;15.45;3.00;;;7.30;99.90;;;;;;5073645;28;20052;-85
2023/01/13 02:22:00;;;;;;;19.63;2.97;;;7.30;99.90;;;;;;5073094;28;20586;-84
2023/01/13 02:24:55;;;;;;;24.52;3.38;;;7.30;99.90;;;;;;5072974;28;20063;-85
2023/01/13 02:27:45;;;;;;;15.90;2.75;;;7.20;99.90;;;;;;5056419;28;20044;-85
2023/01/13 02:33:29;;;;;;;20.23;3.10;;;7.20;99.90;;;;;;5073429;28;20044;-85
2023/01/13 02:36:10;;;;;;;26.42;3.92;;;7.20;99.90;;;;;;5073083;28;20062;-85
2023/01/13 02:38:50;;;;;;;23.05;3.50;;;7.10;99.90;;;;;;5056439;28;20466;-84
2023/01/13 02:44:24;;;;;;;14.25;3.22;;;7.10;99.90;;;;;;5073243;28;20052;-85
2023/01/13 02:46:56;;;;;;;18.45;2.67;;;7.20;99.90;;;;;;5072897;28;20049;-85
2023/01/13 02:49:42;;;;;;;23.92;3.97;;;7.20;99.90;;;;;;5072941;28;20064;-86
2023/01/13 02:52:13;;;;;;;16.60;2.30;;;7.20;99.90;;;;;;5056279;28;20059;-88
2023/01/13 02:54:44;;;;;;;15.63;3.45;;;7.20;99.90;;;;;;5072861;28;20119;-85
2023/01/13 02:57:11;;;;;;;22.83;4.18;;;7.20;99.90;;;;;;5072792;28;20059;-87
2023/01/13 02:59:38;;;;;;;20.35;3.70;;;7.20;99.90;;;;;;5056371;28;20058;-85
2023/01/13 03:02:07;;;;;;;22.80;3.90;;;7.10;99.90;;;;;;5072512;28;20037;-85
2023/01/13 03:04:54;;;;;;;16.30;3.63;;;7.10;99.90;;;;;;5072099;28;20102;-85
2023/01/13 03:07:54;;;;;;;18.92;2.65;;;7.10;99.90;;;;;;5072366;28;20161;-84
2023/01/13 03:10:57;;;;;;;29.25;2.67;;;7.10;99.90;;;;;;5072368;28;20067;-85
2023/01/13 03:14:01;;;;;;;24.27;3.75;;;7.10;99.90;;;;;;5055745;28;20055;-85
2023/01/13 03:16:42;;;;;;;20.05;4.03;;;7.00;99.90;;;;;;5055579;28;20044;-85
2023/01/13 03:19:14;;;;;;;27.85;3.70;;;7.10;99.90;;;;;;5071999;28;20052;-85
2023/01/13 03:22:06;;;;;;;19.48;3.25;;;7.10;99.90;;;;;;5055196;28;20131;-85
2023/01/13 03:24:41;;;;;;;21.20;2.88;;;7.20;99.90;;;;;;5071872;28;20052;-86
2023/01/13 03:27:06;;;;;;;18.85;3.90;;;7.30;99.90;;;;;;5072154;28;20044;-85
2023/01/13 03:29:48;;;;;;;30.20;3.88;;;7.40;99.90;;;;;;5055546;28;20051;-85
2023/01/13 03:32:24;;;;;;;21.42;3.83;;;7.40;99.90;;;;;;5071966;28;20064;-86
2023/01/13 03:35:05;;;;;;;27.52;4.32;;;7.40;99.90;;;;;;5072013;28;20056;-85
2023/01/13 03:37:39;;;;;;;24.83;3.33;;;7.40;99.90;;;;;;5054989;28;20131;-84
2023/01/13 03:40:34;;;;;;;22.67;3.42;;;7.50;99.90;;;;;;5055130;28;20053;-85
2023/01/13 03:45:57;;;;;;;24.27;4.68;;;7.40;99.90;;;;;;5072268;28;20056;-85
2023/01/13 03:48:26;;;;;;;20.08;3.53;;;7.40;99.90;;;;;;5071555;28;20049;-86
2023/01/13 03:50:57;;;;;;;22.63;3.67;;;7.40;99.90;;;;;;5055252;28;20178;-86
2023/01/13 03:53:36;;;;;;;20.55;3.05;;;7.40;99.90;;;;;;5071296;28;20392;-86
2023/01/13 03:56:33;;;;;;;18.05;3.45;;;7.40;99.90;;;;;;5055299;28;20056;-85
2023/01/13 03:59:03;;;;;;;15.73;2.35;;;7.50;99.90;;;;;;5055867;28;20102;-85
2023/01/13 04:02:10;;;;;;;18.08;3.03;;;7.50;99.90;;;;;;5070802;28;20044;-85
2023/01/13 04:05:00;;;;;;;12.98;3.17;;;7.50;99.90;;;;;;5049968;28;20061;-85
2023/01/13 04:07:43;;;;;;;24.25;3.20;;;7.50;99.90;;;;;;5071136;28;20063;-85
2023/01/13 04:10:11;;;;;;;21.70;3.40;;;7.40;99.90;;;;;;5071325;28;20044;-85
2023/01/13 04:13:07;;;;;;;31.98;4.03;;;7.40;99.90;;;;;;5071178;28;20048;-85
2023/01/13 04:15:39;;;;;;;23.00;3.03;;;7.40;99.90;;;;;;5054894;28;20052;-85
2023/01/13 04:18:24;;;;;;;17.02;2.55;;;7.30;99.90;;;;;;5071361;28;20087;-85
2023/01/13 04:20:51;;;;;;;21.40;3.17;;;7.30;99.90;;;;;;5071277;28;20113;-86
2023/01/13 04:23:18;;;;;;;25.95;4.10;;;7.30;99.90;;;;;;5070169;28;20501;-86
2023/01/13 04:25:45;;;;;;;18.42;2.85;;;7.40;99.90;;;;;;5071309;28;20101;-85
2023/01/13 04:28:12;;;;;;;24.13;3.67;;;7.30;99.90;;;;;;5071274;28;20414;-85
2023/01/13 04:30:39;;;;;;;18.48;3.95;;;7.30;99.90;;;;;;5070257;28;20105;-86
2023/01/13 04:33:05;;;;;;;16.80;2.90;;;7.30;99.90;;;;;;5054421;28;20044;-86
2023/01/13 04:35:31;;;;;;;20.95;3.83;;;7.30;99.90;;;;;;5070872;28;20394;-86
2023/01/13 04:37:59;;;;;;;;;;;7.40;99.90;;;;;;5071086;28;20047;-87
2023/01/13 04:40:25;;;;;;;29.15;4.38;;;7.40;99.90;;;;;;5054082;28;19925;-85
2023/01/13 04:42:50;;;;;;;20.98;3.67;;;7.30;99.90;;;;;;5070754;28;20052;-86
2023/01/13 04:45:16;;;;;;;25.60;4.03;;;7.50;99.90;;;;;;5070976;28;20374;-88
2023/01/13 04:47:42;;;;;;;16.23;3.58;;;7.40;99.90;;;;;;5070836;28;20059;-88
2023/01/13 04:50:09;;;;;;;19.20;3.33;;;7.40;99.90;;;;;;5071038;28;20056;-85
2023/01/13 04:52:35;;;;;;;22.80;3.78;;;7.40;99.90;;;;;;5070393;28;20490;-85
2023/01/13 04:55:00;;;;;;;16.25;3.90;;;7.40;99.90;;;;;;5070624;28;20044;-86
2023/01/13 04:57:26;;;;;;;18.13;4.55;;;7.40;99.90;;;;;;5053834;28;20041;-85
2023/01/13 04:59:51;;;;;;;17.88;3.45;;;7.40;99.90;;;;;;5054264;28;20452;-85
2023/01/13 05:02:18;;;;;;;22.83;3.25;;;7.40;99.90;;;;;;5070284;28;20048;-88
2023/01/13 05:04:48;;;;;;;15.20;3.03;;;7.40;99.90;;;;;;5070832;28;20087;-85
2023/01/13 05:07:15;;;;;;;15.77;3.60;;;7.40;99.90;;;;;;5070213;28;20054;-85
2023/01/13 05:09:41;;;;;;;19.77;3.47;;;7.40;99.90;;;;;;5069539;28;20048;-85
2023/01/13 05:17:37;;;;;;;17.20;2.47;;;7.40;99.90;;;;;;5070219;28;20106;-85
2023/01/13 05:20:04;;;;;;;26.75;3.80;;;7.40;99.90;;;;;;5071592;28;20452;-87
2023/01/13 05:25:33;;;;;;;15.98;2.83;;;7.40;99.90;;;;;;4992829;28;20050;-86
2023/01/13 05:27:59;;;;;;;19.13;2.85;;;7.30;99.90;;;;;;5054796;28;20099;-86
2023/01/13 05:30:30;;;;;;;18.73;3.47;;;7.30;99.90;;;;;;5070230;28;20080;-86
2023/01/13 05:32:56;;;;;;;24.00;4.18;;;7.30;99.90;;;;;;5069878;28;20045;-86
2023/01/13 05:35:22;;;;;;;16.70;2.58;;;7.30;99.90;;;;;;5070039;28;20098;-89
2023/01/13 05:37:47;;;;;;;;;;;7.40;99.90;;;;;;5070277;28;20048;-86
2023/01/13 05:43:20;;;;;;;18.40;3.30;;;7.30;99.90;;;;;;5073620;28;20105;-86
2023/01/13 05:45:48;;;;;;;13.38;2.25;;;7.30;99.90;;;;;;5073925;28;20052;-86
2023/01/13 05:48:15;;;;;;;18.48;2.20;;;7.50;99.90;;;;;;5074095;28;20106;-86
2023/01/13 05:50:41;;;;;;;25.15;3.83;;;7.30;99.90;;;;;;5073942;28;20084;-87
2023/01/13 05:53:06;;;;;;;18.52;2.42;;;7.30;99.90;;;;;;5073486;28;20091;-86
2023/01/13 05:55:32;;;;;;;12.02;2.97;;;7.30;99.90;;;;;;5073656;28;20055;-85
2023/01/13 05:57:58;;;;;;;18.23;2.47;;;7.30;99.90;;;;;;5074025;28;20067;-86
2023/01/13 06:00:23;;;;;;;17.75;2.75;;;7.30;99.90;;;;;;5073795;28;20044;-88
2023/01/13 06:02:49;;;;;;;15.32;2.72;;;7.30;99.90;;;;;;5073653;28;20071;-85
2023/01/13 06:05:15;;;;;;;18.52;3.30;;;7.40;99.90;;;;;;5074145;28;20048;-85
2023/01/13 06:07:40;;;;;;;18.48;2.42;;;7.30;99.90;;;;;;5056815;28;20080;-86
2023/01/13 06:10:07;;;;;;;11.32;2.17;;;7.30;99.90;;;;;;5073627;28;20037;-86
2023/01/13 06:12:33;;;;;;;11.40;1.65;;;7.30;99.90;;;;;;5073542;28;20512;-86
2023/01/13 06:14:59;;;;;;;17.20;3.97;;;7.30;99.90;;;;;;5073941;28;20048;-86
2023/01/13 06:17:24;;;;;;;11.30;1.95;;;7.30;99.90;;;;;;5056917;28;20047;-87
2023/01/13 06:19:50;;;;;;;10.20;2.05;;;7.40;99.90;;;;;;5073224;28;20056;-85
2023/01/13 06:22:25;;;;;;;17.40;2.78;;;7.40;99.90;;;;;;5056283;28;20182;-86
2023/01/13 06:24:53;;;;;;;14.45;2.63;;;7.40;99.90;;;;;;5073281;28;20056;-85
2023/01/13 06:27:20;;;;;;;13.43;2.40;;;7.50;99.90;;;;;;5073663;28;20106;-86
2023/01/13 06:29:46;;;;;;;12.45;2.20;;;7.40;99.90;;;;;;5056571;28;20055;-86
2023/01/13 06:32:22;;;;;;;7.30;1.65;;;7.40;99.90;;;;;;5040251;28;20045;-86
2023/01/13 06:34:51;;;;;;;;;;;7.40;99.90;;;;;;5057033;28;20056;-87
2023/01/13 06:37:20;;;;;;;11.77;2.45;;;7.50;99.90;;;;;;5072752;28;20264;-86
2023/01/13 06:39:47;;;;;;;10.25;1.40;;;7.40;99.90;;;;;;5071778;28;20044;-86
2023/01/13 06:44:57;;;;;;;13.02;3.47;;;7.40;99.90;;;;;;5073504;28;20048;-85
2023/01/13 06:47:23;;;;;;;12.05;1.92;;;7.50;99.90;;;;;;5073185;28;20040;-85
2023/01/13 06:49:48;;;;;;;12.85;1.70;;;7.50;99.90;;;;;;5072878;28;20084;-86
2023/01/13 06:52:14;;;;;;;11.50;1.60;;;7.40;99.90;;;;;;5056403;28;20084;-85
2023/01/13 06:54:40;;;;;;;14.30;2.58;;;7.40;99.90;;;;;;5055074;28;20041;-85
2023/01/13 06:57:05;;;;;;;8.82;1.98;;;7.40;99.90;;;;;;5073193;28;20512;-85
2023/01/13 06:59:34;;;;;;;6.57;1.50;;;7.40;99.90;;;;;;5072598;28;20093;-85
2023/01/13 07:02:00;;;;;;;6.88;2.28;;;7.40;99.90;;;;;;5055955;28;20040;-85
2023/01/13 07:04:25;;;;;;;;;;;7.40;99.90;;;;;;5073169;28;20048;-85
2023/01/13 07:06:51;;;;;;;15.48;1.70;;;7.40;99.90;;;;;;5072486;28;19920;-85
2023/01/13 07:09:17;;;;;;;16.77;1.75;;;7.40;99.90;;;;;;5072251;28;20044;-85
2023/01/13 07:11:42;;;;;;;12.52;2.03;;;7.40;99.90;;;;;;5055674;28;20063;-87
2023/01/13 07:16:53;;;;;;;5.85;1.52;;;7.50;99.90;;;;;;5072342;28;20151;-85
2023/01/13 07:19:22;;;;;;;8.38;2.15;;;7.50;99.90;;;;;;5072459;28;20053;-86
2023/01/13 07:21:51;;;;;;;15.07;2.10;;;7.50;99.90;;;;;;5071868;28;20045;-85
2023/01/13 07:24:18;;;;;;;13.65;3.67;;;7.40;99.90;;;;;;5072067;28;20049;-85
2023/01/13 07:26:44;;;;;;;8.77;1.70;;;7.40;99.90;;;;;;5055691;28;20502;-85
2023/01/13 07:29:10;;;;;;;8.35;2.15;;;7.50;99.90;;;;;;5072632;28;20053;-86
2023/01/13 07:31:37;;;;;;;7.05;1.70;;;7.40;99.90;;;;;;5071599;28;20101;-85
2023/01/13 07:34:04;;;;;;;8.85;1.70;;;7.40;99.90;;;;;;5072358;28;20052;-84
2023/01/13 07:36:33;;;;;;;12.85;1.83;;;7.40;99.90;;;;;;5071813;28;20059;-82
2023/01/13 07:38:58;;;;;;;9.65;1.58;;;7.40;99.90;;;;;;5071850;28;20068;-82
2023/01/13 07:44:09;;;;;;;12.05;2.22;;;7.40;99.90;;;;;;5058063;28;20044;-83
2023/01/13 07:46:36;;;;;;;17.98;2.63;;;7.40;99.90;;;;;;5071367;28;20083;-83
2023/01/13 07:49:03;;;;;;;9.80;2.78;;;7.40;99.90;;;;;;5071810;28;20053;-84
2023/01/13 07:51:29;;;;;;;12.82;2.10;;;7.40;99.90;;;;;;5071807;28;20056;-83
2023/01/13 07:53:55;;;;;;;15.55;2.75;;;7.40;99.90;;;;;;5070883;28;20110;-83
2023/01/13 07:56:20;;;;;;;16.52;2.95;;;7.40;99.90;;;;;;5038716;28;20041;-82
2023/01/13 07:58:49;;;;;;;13.45;2.20;;;7.50;99.90;;;;;;5071249;28;20041;-86
2023/01/13 08:01:16;;;;;;;16.88;2.33;;;7.50;99.90;;;;;;5071477;28;20056;-82
2023/01/13 08:03:42;;;;;;;7.63;2.13;;;7.40;99.90;;;;;;5071309;28;20478;-86
2023/01/13 08:06:08;;;;;;;;;;;7.40;99.90;;;;;;5071868;28;20050;-83
2023/01/13 08:08:34;;;;;;;9.32;2.40;;;7.40;99.90;;;;;;5070944;28;19921;-86
2023/01/13 08:11:02;;;;;;;11.45;2.53;;;7.40;99.90;;;;;;5071316;28;20054;-82
2023/01/13 08:13:28;;;;;;;14.18;2.35;;;7.30;99.90;;;;;;5071457;28;20135;-82
2023/01/13 08:16:00;;;;;;;15.20;2.35;;;7.30;99.90;;;;;;5071103;28;20050;-83
2023/01/13 08:18:25;;;;;;;19.27;3.25;;;7.30;99.90;;;;;;5071261;28;20446;-83
2023/01/13 08:20:52;;;;;;;6.50;2.40;;;7.30;99.90;;;;;;5053778;28;20091;-84
2023/01/13 08:23:18;;;;;;;;;;;7.30;99.90;;;;;;5071384;28;20049;-82
2023/01/13 08:25:44;;;;;;;16.10;2.30;;;7.30;99.90;;;;;;5071023;28;20415;-78
2023/01/13 08:28:10;;;;;;;;;;;7.30;99.90;;;;;;5072595;28;20055;-82
2023/01/13 08:30:35;;;;;;;13.55;1.90;;;7.30;99.90;;;;;;5071100;28;20015;-85
2023/01/13 08:33:04;;;;;;;15.63;2.33;;;7.20;99.90;;;;;;5070563;28;20040;-84
2023/01/13 08:35:30;;;;;;;19.83;2.30;;;7.30;99.90;;;;;;5071229;28;20064;-84
2023/01/13 08:37:56;;;;;;;14.50;2.50;;;7.20;99.90;;;;;;5070320;28;20104;-82
2023/01/13 08:40:22;;;;;;;26.35;2.42;;;7.10;99.90;;;;;;5070842;28;20048;-85
2023/01/13 08:42:48;;;;;;;11.25;1.90;;;6.90;99.90;;;;;;5070576;28;20490;-87
2023/01/13 08:45:14;;;;;;;13.13;1.90;;;6.90;99.90;;;;;;5071061;28;20127;-86
2023/01/13 08:47:39;;;;;;;12.57;2.25;;;6.90;99.90;;;;;;5070390;28;20064;-86
2023/01/13 08:50:06;;;;;;;15.90;3.03;;;6.70;99.90;;;;;;5070906;28;20056;-86
2023/01/13 08:52:31;;;;;;;14.30;2.85;;;6.70;99.90;;;;;;5070329;28;20044;-82
2023/01/13 08:54:57;;;;;;;20.85;3.10;;;7.00;99.90;;;;;;5070933;28;20637;-83
2023/01/13 08:57:23;;;;;;;20.85;2.83;;;6.70;99.90;;;;;;5071708;28;20135;-82
2023/01/13 08:59:48;;;;;;;10.80;2.17;;;6.70;99.90;;;;;;5053860;28;20040;-86
2023/01/13 09:02:20;;;;;;;14.77;2.33;;;6.90;99.90;;;;;;5070228;28;20044;-86
2023/01/13 09:04:46;;;;;;;13.18;2.08;;;6.70;99.90;;;;;;5070406;28;20044;-86
2023/01/13 09:07:12;;;;;;;19.80;2.47;;;6.80;99.90;;;;;;5070550;28;20556;-86
2023/01/13 09:09:38;;;;;;;17.77;2.40;;;6.80;99.90;;;;;;5070266;28;20054;-87
2023/01/13 09:14:49;;;;;;;15.98;2.92;;;6.90;99.90;;;;;;5070488;28;20545;-86
2023/01/13 09:17:14;;;;;;;11.65;1.90;;;6.90;99.90;;;;;;5074145;28;20128;-86
2023/01/13 09:19:40;;;;;;;11.38;2.22;;;7.00;99.90;;;;;;5076676;28;20048;-87
2023/01/13 09:22:13;;;;;;;8.27;1.90;;;7.00;99.90;;;;;;5078040;28;20044;-86
2023/01/13 09:24:41;;;;;;;14.52;2.60;;;7.10;99.90;;;;;;5076767;28;20056;-86
2023/01/13 09:27:11;;;;;;;20.42;2.72;;;7.10;99.90;;;;;;5077085;28;20106;-86
2023/01/13 09:29:37;;;;;;;9.23;2.28;;;7.10;99.90;;;;;;5077258;28;20127;-87
2023/01/13 09:32:04;;;;;;;13.20;2.47;;;7.10;99.90;;;;;;5076573;28;20135;-86
2023/01/13 09:37:13;;;;;;;18.70;3.38;;;7.20;99.90;;;;;;5076831;28;20052;-86
2023/01/13 09:39:39;;;;;;;20.42;2.92;;;7.20;99.90;;;;;;5076813;28;20049;-86
2023/01/13 09:45:15;;;;;;;10.05;2.17;;;7.30;99.90;;;;;;5077020;28;20056;-87
2023/01/13 09:48:00;;;;;;;14.13;3.03;;;7.30;99.90;;;;;;5076539;28;20044;-85
2023/01/13 09:50:42;;;;;;;12.05;1.77;;;7.30;99.90;;;;;;5077135;28;20052;-86
2023/01/13 09:53:20;;;;;;;16.83;2.20;;;7.40;99.90;;;;;;5076194;28;20052;-86
2023/01/13 09:55:46;;;;;;;15.85;2.25;;;7.40;99.90;;;;;;5076719;28;20087;-84
2023/01/13 09:58:16;;;;;;;;;;;7.50;99.90;;;;;;5059854;28;20048;-84
2023/01/13 10:00:49;;;;;;;16.70;2.13;;;7.50;99.90;;;;;;5076086;28;19980;-87
2023/01/13 10:03:27;;;;;;;11.55;2.10;;;7.50;99.90;;;;;;5076426;28;20056;-86
2023/01/13 10:06:07;;;;;;;15.18;2.15;;;7.50;99.90;;;;;;5075754;28;20052;-86
2023/01/13 10:08:44;;;;;;;12.50;1.75;;;7.60;99.90;;;;;;5075886;28;20056;-86
2023/01/13 10:14:11;;;;;;;18.35;2.90;;;7.70;99.90;;;;;;5075723;28;20392;-85
2023/01/13 10:16:42;;;;;;;9.68;2.35;;;7.70;99.90;;;;;;5075618;28;20048;-85
2023/01/13 10:19:13;;;;;;;24.17;3.03;;;7.70;99.90;;;;;;5076306;28;20143;-84
2023/01/13 10:21:44;;;;;;;15.18;3.53;;;7.60;99.90;;;;;;5075259;28;20053;-86
2023/01/13 10:24:44;;;;;;;9.88;2.17;;;7.50;99.90;;;;;;5075406;28;20094;-84
2023/01/13 10:27:39;;;;;;;12.85;2.45;;;7.50;99.90;;;;;;5075476;28;20044;-84
2023/01/13 10:30:16;;;;;;;15.63;2.15;;;7.50;99.90;;;;;;5068111;28;20652;-84
2023/01/13 10:32:42;;;;;;;;;;;7.50;99.90;;;;;;5072969;28;20398;-84
2023/01/13 10:35:08;;;;;;;17.50;3.03;;;7.50;99.90;;;;;;5055849;28;19916;-84
2023/01/13 10:37:34;;;;;;;16.75;2.78;;;7.40;99.90;;;;;;5072339;28;20055;-83
2023/01/13 10:40:03;;;;;;;13.48;2.60;;;7.40;99.90;;;;;;5073074;28;20053;-84
2023/01/13 10:42:29;;;;;;;10.27;2.45;;;7.30;99.90;;;;;;5073278;28;20050;-84
2023/01/13 10:44:57;;;;;;;14.27;2.30;;;7.30;99.90;;;;;;5055535;28;20484;-84
2023/01/13 10:47:26;;;;;;;13.88;2.20;;;7.30;99.90;;;;;;5072455;28;20443;-85
2023/01/13 10:50:21;;;;;;;12.65;2.95;;;7.40;99.90;;;;;;5072155;28;20054;-85
2023/01/13 10:53:00;;;;;;;14.93;3.53;;;7.40;99.90;;;;;;5071616;28;20044;-85
2023/01/13 10:55:32;;;;;;;11.85;2.40;;;7.40;99.90;;;;;;5072982;28;20048;-84
2023/01/13 10:58:10;;;;;;;14.85;1.77;;;7.50;99.90;;;;;;5071575;28;20040;-84
2023/01/13 11:00:36;;;;;;;14.38;2.92;;;7.50;99.90;;;;;;5072409;28;20048;-86
2023/01/13 11:03:21;;;;;;;12.95;2.10;;;7.50;99.90;;;;;;5071422;28;20062;-87
2023/01/13 11:05:52;;;;;;;19.70;3.38;;;7.50;99.90;;;;;;5055209;28;20139;-88
2023/01/13 11:08:20;;;;;;;12.27;2.40;;;7.50;99.90;;;;;;5071908;28;20474;-87
2023/01/13 11:10:49;;;;;;;13.30;3.53;;;7.50;99.90;;;;;;5072461;28;20064;-86
2023/01/13 11:13:28;;;;;;;15.10;2.20;;;7.50;99.90;;;;;;5072032;28;20048;-87
2023/01/13 11:16:14;;;;;;;11.68;2.42;;;7.40;99.90;;;;;;5072164;28;20470;-87
2023/01/13 11:19:00;;;;;;;12.52;3.35;;;7.50;99.90;;;;;;5072001;28;20056;-88
2023/01/13 11:21:57;;;;;;;25.57;3.63;;;7.50;99.90;;;;;;5071429;28;20045;-87
2023/01/13 11:24:37;;;;;;;11.07;3.10;;;7.50;99.90;;;;;;5071993;28;20298;-86
2023/01/13 11:27:13;;;;;;;15.70;2.20;;;7.50;99.90;;;;;;5072752;28;20477;-88
2023/01/13 11:30:01;;;;;;;19.20;2.88;;;7.50;99.90;;;;;;5056507;28;20044;-86
2023/01/13 11:32:32;;;;;;;15.05;2.28;;;7.50;99.90;;;;;;5072548;28;20079;-85
2023/01/13 11:35:13;;;;;;;16.30;2.47;;;7.50;99.90;;;;;;5072155;28;20088;-84
2023/01/13 11:37:43;;;;;;;14.18;2.50;;;7.40;99.90;;;;;;5072584;28;20041;-84
2023/01/13 11:40:31;;;;;;;11.10;2.17;;;7.40;99.90;;;;;;5055439;28;20052;-86
2023/01/13 11:43:14;;;;;;;19.15;2.40;;;7.40;99.90;;;;;;5072520;28;20401;-86
2023/01/13 11:45:54;;;;;;;13.52;2.35;;;7.40;99.90;;;;;;5072982;28;20426;-86
2023/01/13 11:48:25;;;;;;;20.55;4.38;;;7.50;99.90;;;;;;5056041;28;20041;-89
2023/01/13 11:51:24;;;;;;;14.07;2.13;;;7.50;99.90;;;;;;5072394;28;20515;-91
2023/01/13 11:54:31;;;;;;;13.52;2.58;;;7.50;99.90;;;;;;5072442;28;20087;-86
2023/01/13 11:57:09;;;;;;;14.35;2.83;;;7.60;99.90;;;;;;5072131;28;20044;-88
2023/01/13 12:00:01;;;;;;;13.50;2.83;;;7.50;99.90;;;;;;5072851;28;20044;-85
2023/01/13 12:02:39;;;;;;;15.95;2.58;;;7.50;99.90;;;;;;5071827;28;20044;-86
2023/01/13 12:05:27;;;;;;;18.15;2.88;;;7.40;99.90;;;;;;5072390;28;20084;-87
2023/01/13 12:08:08;;;;;;;17.13;2.28;;;7.30;99.90;;;;;;5072190;28;20048;-90
2023/01/13 12:11:11;;;;;;;17.33;2.95;;;7.30;99.90;;;;;;5072321;28;20193;-86
2023/01/13 12:13:43;;;;;;;18.60;3.17;;;7.30;99.90;;;;;;5072628;28;20398;-86
2023/01/13 12:16:29;;;;;;;13.85;2.70;;;7.40;99.90;;;;;;5072337;28;20048;-87
2023/01/13 12:19:17;;;;;;;15.73;3.30;;;7.60;99.90;;;;;;5055401;28;20051;-90
2023/01/13 12:22:01;;;;;;;15.63;2.97;;;7.80;99.90;;;;;;5071704;28;20086;-87
2023/01/13 12:24:48;;;;;;;19.35;2.00;;;7.80;99.90;;;;;;5071681;28;20479;-88
2023/01/13 12:27:37;;;;;;;12.60;2.35;;;7.70;99.90;;;;;;5071933;28;20053;-86
2023/01/13 12:30:25;;;;;;;8.50;2.30;;;7.60;99.90;;;;;;5071689;28;20059;-87
2023/01/13 12:32:57;;;;;;;21.50;3.08;;;7.60;99.90;;;;;;5071729;28;20049;-87
2023/01/13 12:35:46;;;;;;;13.50;2.42;;;7.60;99.90;;;;;;5071556;28;20102;-87
2023/01/13 12:38:21;;;;;;;11.15;1.85;;;7.60;99.90;;;;;;5071057;28;20125;-87
2023/01/13 12:40:57;;;;;;;26.95;2.67;;;7.60;99.90;;;;;;5071873;28;20053;-87
2023/01/13 12:46:20;;;;;;;14.95;3.80;;;7.60;99.90;;;;;;5071422;28;20063;-89
2023/01/13 12:48:54;;;;;;;18.60;2.55;;;7.60;99.90;;;;;;5071889;28;20045;-85
2023/01/13 12:51:54;;;;;;;10.18;2.50;;;7.50;99.90;;;;;;5070836;28;20504;-86
2023/01/13 12:54:29;;;;;;;16.15;3.72;;;7.40;99.90;;;;;;5070459;28;20049;-86
2023/01/13 12:56:56;;;;;;;20.30;2.72;;;7.40;99.90;;;;;;5071670;28;20055;-86
2023/01/13 12:59:22;;;;;;;9.73;2.38;;;7.40;99.90;;;;;;5071461;28;20106;-86
2023/01/13 13:02:08;;;;;;;11.18;2.00;;;7.40;99.90;;;;;;5071471;28;20559;-86
2023/01/13 13:04:40;;;;;;;12.48;2.30;;;7.40;99.90;;;;;;5056939;28;20063;-85
2023/01/13 13:07:15;;;;;;;10.68;2.00;;;7.40;99.90;;;;;;5071065;28;20633;-86
2023/01/13 13:09:44;;;;;;;16.30;2.42;;;7.40;99.90;;;;;;5054727;28;20057;-86
2023/01/13 13:15:33;;;;;;;12.63;2.70;;;7.40;99.90;;;;;;5071373;28;20125;-85
2023/01/13 13:18:07;;;;;;;9.95;1.90;;;7.40;99.90;;;;;;5071124;28;20050;-87
2023/01/13 13:20:54;;;;;;;11.75;2.58;;;7.40;99.90;;;;;;5070534;28;20510;-87
2023/01/13 13:23:55;;;;;;;11.65;2.95;;;7.40;99.90;;;;;;5070413;28;20086;-87
2023/01/13 13:26:24;;;;;;;10.70;1.95;;;7.40;99.90;;;;;;5064410;28;20139;-89
2023/01/13 13:28:56;;;;;;;7.85;2.10;;;7.40;99.90;;;;;;5070323;28;20109;-88
2023/01/13 13:31:59;;;;;;;9.68;1.88;;;7.40;99.90;;;;;;5070547;28;20123;-86
2023/01/13 13:34:50;;;;;;;8.05;1.52;;;7.50;99.90;;;;;;4988148;28;20052;-88
2023/01/13 13:46:45;;;;;;;14.10;2.08;;;7.50;99.90;;;;;;5070275;28;20048;-87
2023/01/13 13:48:38;;;;;;;6.65;1.40;;;7.60;99.90;;;;;;5056183;28;20091;-85
2023/01/13 13:51:38;;;;;;;10.60;1.83;;;7.70;99.90;;;;;;5053128;28;20091;-87
2023/01/13 13:54:04;;;;;;;12.32;2.10;;;7.70;99.90;;;;;;5054843;28;20060;-88
2023/01/13 13:56:36;;;;;;;8.57;1.83;;;7.60;99.90;;;;;;5053877;28;20094;-86
2023/01/13 13:59:02;;;;;;;8.95;1.75;;;7.60;99.90;;;;;;5071123;28;20135;-87
2023/01/13 14:01:35;;;;;;;12.85;2.50;;;7.50;99.90;;;;;;5053151;28;20151;-86
2023/01/13 14:04:09;;;;;;;10.70;2.70;;;7.50;99.90;;;;;;5073521;28;20400;-85
2023/01/13 14:06:35;;;;;;;8.68;1.60;;;7.50;99.90;;;;;;5073948;28;20098;-85
2023/01/13 14:09:02;;;;;;;7.68;2.35;;;7.60;99.90;;;;;;5073551;28;20385;-86
2023/01/13 14:11:32;;;;;;;12.88;1.48;;;7.60;99.90;;;;;;5073448;28;20063;-86
2023/01/13 14:14:11;;;;;;;9.82;1.40;;;7.80;99.90;;;;;;5073676;28;20504;-87
2023/01/13 14:16:38;;;;;;;9.13;1.92;;;7.80;99.90;;;;;;5073898;28;20052;-87